Hlavní strana
METAR-TAF:

METAR-TAF

Letiště :

Virginia Highlands Airport

Abingdon, Virginie, Spojené státy americké

zeměpisná šířka: 36-41N, zeměpisná délka: 082-02W, výška: 631 m

Aktuální stav počasí

Zpráva byla vytvořena před 14 hodinami a 6 minutami, v 19:15 UTC
Severozápadní vítr 7 kt
Teplota 28°C
Vlhkost vzduchu 48%
Tlak 1019 hPa
Viditelnost: 16.1 km
Oblačno až skoro zataženo ve výšce 5000 ft
Oblačno až skoro zataženo ve výšce 6500 ft
bouřka v blíkosti

METAR: KVJI 061915Z AUTO 32007KT 10SM VCTS BKN050 BKN065 28/16 A3008 RMK AO2 LTG DSNT W AND NW T02820160

Čas: 05:21 (09:21 UTC)


TAF: chybějící

Stav a předpovědi počasí z více než 4 000 letišť (zprávy METAR a TAF).

Červené a žluté tečky na mapě představují dostupné meteorologické stanice.

Když kurzor umístíte na tečku, zobrazí se název stanice.

Pak kliknutím zobrazíte stav a předpověď počasí.

Chcete-li změnit mapu, kliknutím na zelené tlačítko se znaménkem +mapu přiblížíte, kliknutím na zelené tlačítko se znaménkem – mapu oddálíte a kliknutím na zelené šipky přejdete na sousední mapy.


METAR-TAF: